createdAt,value
2022-10-12T00:01:32.687Z,15.70
2022-10-12T00:04:06.010Z,14.30
2022-10-12T00:07:01.809Z,14.10
2022-10-12T00:09:38.834Z,15.20
2022-10-12T00:12:21.031Z,15.40
2022-10-12T00:15:09.174Z,14.10
2022-10-12T00:17:41.843Z,14.00
2022-10-12T00:20:16.995Z,14.40
2022-10-12T00:22:58.608Z,14.90
2022-10-12T00:25:32.193Z,14.70
2022-10-12T00:28:01.967Z,16.40
2022-10-12T00:30:31.467Z,14.40
2022-10-12T00:33:10.584Z,14.20
2022-10-12T00:35:38.220Z,14.40
2022-10-12T00:38:07.988Z,14.10
2022-10-12T00:40:37.694Z,14.10
2022-10-12T00:43:28.357Z,15.10
2022-10-12T00:46:02.406Z,14.30
2022-10-12T00:48:42.142Z,15.90
2022-10-12T00:51:25.485Z,14.40
2022-10-12T00:54:08.466Z,13.60
2022-10-12T00:56:38.975Z,15.20
2022-10-12T00:59:17.455Z,14.30
2022-10-12T01:01:47.032Z,15.20
2022-10-12T01:04:22.967Z,15.30
2022-10-12T01:07:22.229Z,15.10
2022-10-12T01:10:02.281Z,15.50
2022-10-12T01:12:47.198Z,14.60
2022-10-12T01:19:58.910Z,15.10
2022-10-12T01:22:43.728Z,14.10
2022-10-12T01:25:42.872Z,14.00
2022-10-12T01:28:40.011Z,16.10
2022-10-12T01:31:35.622Z,14.60
2022-10-12T01:34:23.300Z,15.40
2022-10-12T01:37:14.781Z,14.50
2022-10-12T01:39:50.501Z,15.40
2022-10-12T01:42:26.207Z,15.10
2022-10-12T01:45:06.949Z,15.30
2022-10-12T01:47:47.723Z,16.60
2022-10-12T01:50:19.033Z,15.50
2022-10-12T01:53:16.083Z,15.60
2022-10-12T01:56:01.053Z,14.50
2022-10-12T01:58:35.809Z,14.80
2022-10-12T02:01:25.471Z,14.20
2022-10-12T02:04:13.529Z,14.10
2022-10-12T02:06:55.457Z,15.30
2022-10-12T02:09:42.557Z,14.30
2022-10-12T02:12:22.203Z,15.50
2022-10-12T02:17:53.739Z,15.60
2022-10-12T02:20:38.248Z,14.80
2022-10-12T02:23:07.473Z,16.60
2022-10-12T02:25:50.991Z,16.90
2022-10-12T02:28:25.348Z,15.40
2022-10-12T02:31:35.635Z,14.10
2022-10-12T02:34:15.607Z,13.60
2022-10-12T02:37:07.670Z,14.50
2022-10-12T02:39:49.968Z,14.20
2022-10-12T02:42:58.448Z,13.80
2022-10-12T02:45:32.150Z,13.80
2022-10-12T02:48:01.285Z,14.20
2022-10-12T02:50:48.272Z,14.80
2022-10-12T02:53:25.937Z,14.70
2022-10-12T02:56:02.108Z,13.40
2022-10-12T02:58:32.465Z,16.00
2022-10-12T03:01:02.242Z,14.70
2022-10-12T03:06:17.112Z,14.60
2022-10-12T03:09:02.560Z,13.40
2022-10-12T03:11:46.156Z,13.30
2022-10-12T03:14:27.178Z,14.10
2022-10-12T03:17:08.665Z,15.50
2022-10-12T03:19:44.629Z,14.30
2022-10-12T03:22:16.043Z,13.20
2022-10-12T03:24:45.625Z,14.80
2022-10-12T03:27:24.611Z,13.10
2022-10-12T03:30:04.818Z,12.70
2022-10-12T03:32:40.698Z,13.80
2022-10-12T03:35:13.757Z,13.40
2022-10-12T03:40:42.930Z,12.60
2022-10-12T03:43:12.780Z,13.40
2022-10-12T03:46:08.502Z,12.70
2022-10-12T03:48:48.199Z,13.20
2022-10-12T03:51:23.542Z,13.70
2022-10-12T03:53:58.880Z,15.50
2022-10-12T03:56:32.070Z,13.10
2022-10-12T03:59:18.234Z,13.30
2022-10-12T04:01:58.445Z,14.30
2022-10-12T04:04:26.306Z,13.10
2022-10-12T04:07:00.385Z,14.30
2022-10-12T04:09:46.663Z,14.30
2022-10-12T04:12:30.949Z,12.60
2022-10-12T04:14:58.741Z,13.80
2022-10-12T04:17:26.100Z,15.30
2022-10-12T04:20:10.818Z,13.00
2022-10-12T04:22:57.440Z,12.60
2022-10-12T04:25:32.300Z,14.10
2022-10-12T04:28:13.185Z,13.20
2022-10-12T04:31:04.973Z,13.20
2022-10-12T04:33:55.213Z,14.20
2022-10-12T04:36:22.883Z,14.30
2022-10-12T04:38:50.884Z,13.70
2022-10-12T04:41:32.068Z,13.50
2022-10-12T04:44:01.784Z,16.00
2022-10-12T04:46:41.273Z,13.50
2022-10-12T04:49:22.753Z,15.00
2022-10-12T04:51:57.206Z,14.30
2022-10-12T04:54:26.949Z,13.50
2022-10-12T04:57:07.560Z,13.40
2022-10-12T04:59:49.487Z,13.20
2022-10-12T05:02:21.669Z,13.80
2022-10-12T05:05:06.759Z,13.50
2022-10-12T05:08:04.037Z,13.30
2022-10-12T05:10:34.163Z,13.70
2022-10-12T05:13:07.906Z,15.30
2022-10-12T05:16:08.749Z,14.00
2022-10-12T05:18:32.829Z,13.70
2022-10-12T05:23:58.368Z,14.80
2022-10-12T05:26:32.562Z,13.40
2022-10-12T05:31:40.556Z,14.70
2022-10-12T05:34:11.759Z,14.50
2022-10-12T05:37:10.657Z,13.90
2022-10-12T05:39:54.894Z,14.70
2022-10-12T05:42:34.931Z,13.50
2022-10-12T05:45:17.098Z,14.50
2022-10-12T05:47:52.241Z,13.40
2022-10-12T05:50:31.879Z,13.90
2022-10-12T05:53:01.438Z,13.80
2022-10-12T05:55:39.633Z,14.50
2022-10-12T05:58:14.634Z,15.60
2022-10-12T06:00:46.219Z,13.90
2022-10-12T06:03:21.130Z,15.10
2022-10-12T06:06:25.447Z,14.50
2022-10-12T06:08:57.701Z,14.20
2022-10-12T06:11:30.429Z,15.20
2022-10-12T06:14:15.785Z,14.40
2022-10-12T06:16:54.632Z,15.30
2022-10-12T06:19:32.448Z,14.10
2022-10-12T06:22:21.572Z,14.70
2022-10-12T06:25:02.909Z,15.10
2022-10-12T06:27:30.217Z,16.40
2022-10-12T06:30:04.093Z,14.30
2022-10-12T06:32:40.875Z,14.30
2022-10-12T06:35:22.701Z,15.70
2022-10-12T06:37:56.261Z,15.70
2022-10-12T06:40:28.666Z,15.50
2022-10-12T06:42:58.601Z,15.20
2022-10-12T06:45:36.674Z,17.40
2022-10-12T06:48:07.453Z,16.10
2022-10-12T06:50:34.609Z,15.20
2022-10-12T06:53:06.655Z,17.30
2022-10-12T06:55:39.709Z,15.20
2022-10-12T06:58:09.615Z,16.00
2022-10-12T07:00:40.595Z,17.20
2022-10-12T07:03:10.504Z,15.40
2022-10-12T07:05:40.095Z,16.30
2022-10-12T07:08:10.723Z,16.70
2022-10-12T07:10:45.481Z,16.50
2022-10-12T07:19:10.317Z,16.90
2022-10-12T07:21:37.247Z,15.60
2022-10-12T07:24:04.583Z,16.80
2022-10-12T07:26:31.862Z,16.90
2022-10-12T07:28:59.298Z,16.90
2022-10-12T07:31:26.612Z,16.00
2022-10-12T07:33:54.912Z,17.20
2022-10-12T07:36:22.333Z,17.40
2022-10-12T07:38:51.055Z,16.60
2022-10-12T07:41:18.457Z,17.60
2022-10-12T07:43:45.594Z,17.70
2022-10-12T07:46:12.546Z,17.90
2022-10-12T07:48:44.560Z,18.00
2022-10-12T07:51:16.012Z,18.00
2022-10-12T07:53:42.869Z,18.30
2022-10-12T07:56:15.263Z,18.40
2022-10-12T07:58:53.500Z,18.60
2022-10-12T08:01:22.222Z,18.80
2022-10-12T08:03:49.932Z,19.10
2022-10-12T08:06:20.108Z,19.40
2022-10-12T08:08:47.810Z,19.60
2022-10-12T08:11:15.298Z,20.00
2022-10-12T08:13:42.478Z,20.30
2022-10-12T08:16:14.840Z,20.60
2022-10-12T08:18:42.141Z,20.80
2022-10-12T08:21:10.843Z,20.90
2022-10-12T08:23:38.420Z,20.80
2022-10-12T08:26:05.961Z,20.80
2022-10-12T08:28:33.150Z,20.90
2022-10-12T08:31:00.731Z,20.90
2022-10-12T08:33:29.962Z,21.00
2022-10-12T08:35:56.836Z,21.20
2022-10-12T08:38:23.625Z,21.20
2022-10-12T08:41:18.961Z,21.20
2022-10-12T08:43:58.009Z,21.30
2022-10-12T08:46:26.590Z,21.40
2022-10-12T08:49:05.997Z,21.50
2022-10-12T08:51:39.391Z,21.70
2022-10-12T08:54:08.466Z,21.90
2022-10-12T08:56:35.916Z,22.00
2022-10-12T08:59:03.617Z,22.10
2022-10-12T09:01:37.361Z,22.10
2022-10-12T09:04:19.349Z,22.30
2022-10-12T09:07:00.729Z,22.50
2022-10-12T09:09:33.059Z,22.70
2022-10-12T09:12:15.413Z,22.80
2022-10-12T09:14:43.586Z,22.80
2022-10-12T09:17:33.690Z,23.00
2022-10-12T09:20:06.546Z,23.20
2022-10-12T09:22:35.241Z,23.30
2022-10-12T09:25:03.441Z,23.40
2022-10-12T09:27:31.936Z,23.60
2022-10-12T09:30:03.241Z,23.80
2022-10-12T09:32:45.078Z,24.10
2022-10-12T09:35:15.766Z,24.30
2022-10-12T09:37:44.928Z,24.40
2022-10-12T09:40:27.644Z,24.50
2022-10-12T09:42:56.044Z,24.60
2022-10-12T09:45:22.993Z,24.50
2022-10-12T09:48:08.549Z,24.50
2022-10-12T09:50:50.353Z,24.30
2022-10-12T09:53:27.380Z,24.10
2022-10-12T09:56:19.562Z,24.00
2022-10-12T09:59:05.886Z,24.00
2022-10-12T10:01:35.479Z,24.20
2022-10-12T10:04:11.212Z,24.40
2022-10-12T10:06:40.302Z,24.80
2022-10-12T10:09:26.908Z,25.20
2022-10-12T10:11:54.321Z,25.40
2022-10-12T10:14:21.598Z,25.50
2022-10-12T10:16:54.572Z,25.50
2022-10-12T10:19:25.123Z,25.40
2022-10-12T10:21:53.556Z,25.10
2022-10-12T10:24:26.209Z,24.90
2022-10-12T10:27:05.924Z,25.00
2022-10-12T10:29:32.654Z,25.70
2022-10-12T10:32:26.928Z,26.60
2022-10-12T10:35:04.129Z,27.60
2022-10-12T10:37:31.735Z,27.70
2022-10-12T10:39:59.549Z,27.40
2022-10-12T10:42:31.581Z,27.20
2022-10-12T10:45:02.332Z,27.00
2022-10-12T10:47:31.089Z,27.10
2022-10-12T10:50:01.773Z,27.40
2022-10-12T10:52:31.722Z,27.50
2022-10-12T10:55:11.397Z,27.20
2022-10-12T10:58:03.300Z,26.80
2022-10-12T11:00:39.055Z,26.90
2022-10-12T11:03:11.867Z,26.70
2022-10-12T11:05:46.715Z,26.20
2022-10-12T11:08:25.791Z,26.10
2022-10-12T11:10:58.233Z,26.00
2022-10-12T11:13:42.888Z,26.10
2022-10-12T11:16:29.562Z,26.40
2022-10-12T11:19:06.728Z,27.20
2022-10-12T11:21:43.176Z,28.20
2022-10-12T11:24:39.485Z,28.10
2022-10-12T11:27:33.559Z,27.70
2022-10-12T11:30:09.249Z,26.90
2022-10-12T11:32:43.264Z,26.10
2022-10-12T11:35:22.138Z,25.70
2022-10-12T11:37:59.259Z,25.60
2022-10-12T11:41:00.337Z,26.10
2022-10-12T11:43:30.186Z,27.00
2022-10-12T11:46:05.866Z,28.30
2022-10-12T11:48:39.632Z,28.30
2022-10-12T11:51:07.421Z,27.90
2022-10-12T11:53:58.856Z,27.00
2022-10-12T11:56:38.558Z,26.30
2022-10-12T11:59:32.521Z,25.60
2022-10-12T12:02:22.998Z,24.90
2022-10-12T12:04:50.861Z,24.10
2022-10-12T12:07:43.446Z,23.70
2022-10-12T12:10:25.607Z,23.20
2022-10-12T12:13:18.241Z,22.90
2022-10-12T12:15:47.859Z,22.70
2022-10-12T12:18:26.098Z,22.50
2022-10-12T12:21:02.942Z,22.30
2022-10-12T12:23:38.575Z,22.10
2022-10-12T12:26:16.210Z,21.90
2022-10-12T12:29:10.431Z,21.80
2022-10-12T12:31:37.690Z,21.70
2022-10-12T12:34:14.160Z,21.50
2022-10-12T12:36:47.152Z,21.50
2022-10-12T12:39:33.378Z,21.40
2022-10-12T12:42:06.549Z,21.40
2022-10-12T12:44:41.360Z,21.30
2022-10-12T12:50:01.165Z,21.10
2022-10-12T12:52:38.927Z,21.00
2022-10-12T12:55:17.617Z,20.90
2022-10-12T12:58:05.441Z,20.90
2022-10-12T13:00:51.001Z,20.90
2022-10-12T13:03:45.545Z,20.90
2022-10-12T13:06:18.240Z,20.90
2022-10-12T13:09:00.080Z,21.00
2022-10-12T13:11:47.605Z,20.90
2022-10-12T13:14:36.191Z,21.00
2022-10-12T13:17:32.798Z,21.10
2022-10-12T13:20:10.278Z,21.10
2022-10-12T13:22:37.217Z,21.10
2022-10-12T13:25:07.861Z,21.10
2022-10-12T13:27:51.823Z,21.10
2022-10-12T13:30:40.869Z,21.00
2022-10-12T13:33:11.296Z,20.80
2022-10-12T13:36:17.285Z,20.80
2022-10-12T13:38:44.516Z,20.80
2022-10-12T13:41:14.763Z,20.90
2022-10-12T13:43:53.626Z,20.90
2022-10-12T13:46:59.210Z,20.90
2022-10-12T13:49:41.590Z,20.50
2022-10-12T13:52:11.491Z,20.80
2022-10-12T13:54:49.912Z,20.80
2022-10-12T13:57:42.996Z,20.80
2022-10-12T14:00:20.342Z,20.80
2022-10-12T14:02:58.982Z,20.70
2022-10-12T14:05:28.323Z,20.70
2022-10-12T14:08:17.109Z,20.70
2022-10-12T14:10:44.921Z,20.70
2022-10-12T14:13:17.863Z,20.60
2022-10-12T14:15:44.830Z,20.60
2022-10-12T14:18:51.012Z,20.60
2022-10-12T14:21:23.380Z,20.60
2022-10-12T14:23:59.392Z,20.70
2022-10-12T14:26:34.757Z,20.70
2022-10-12T14:29:27.510Z,20.80
2022-10-12T14:31:56.742Z,20.80
2022-10-12T14:34:27.837Z,20.80
2022-10-12T14:37:06.633Z,20.80
2022-10-12T14:39:33.715Z,20.80
2022-10-12T14:42:18.652Z,20.80
2022-10-12T14:44:45.516Z,20.80
2022-10-12T14:47:22.409Z,20.80
2022-10-12T14:49:51.720Z,20.70
2022-10-12T14:52:25.640Z,20.70
2022-10-12T14:57:29.723Z,20.50
2022-10-12T14:59:57.367Z,20.50
2022-10-12T15:02:29.314Z,20.40
2022-10-12T15:04:56.788Z,20.30
2022-10-12T15:07:30.857Z,20.30
2022-10-12T15:09:58.592Z,20.30
2022-10-12T15:12:27.122Z,20.20
2022-10-12T15:14:56.322Z,20.10
2022-10-12T15:17:23.487Z,20.10
2022-10-12T15:19:51.528Z,20.00
2022-10-12T15:22:25.729Z,20.00
2022-10-12T15:24:54.148Z,19.80
2022-10-12T15:27:21.320Z,19.80
2022-10-12T15:29:48.723Z,19.70
2022-10-12T15:32:17.655Z,19.70
2022-10-12T15:34:44.921Z,19.60
2022-10-12T15:37:12.337Z,19.60
2022-10-12T15:39:42.751Z,19.60
2022-10-12T15:42:12.459Z,19.50
2022-10-12T15:44:42.811Z,19.50
2022-10-12T15:47:11.576Z,19.50
2022-10-12T15:49:38.754Z,19.40
2022-10-12T15:52:09.602Z,19.30
2022-10-12T15:54:36.604Z,19.40
2022-10-12T15:57:03.530Z,19.30
2022-10-12T15:59:31.268Z,18.70
2022-10-12T16:01:59.211Z,19.20
2022-10-12T16:04:26.522Z,19.20
2022-10-12T16:06:53.362Z,19.10
2022-10-12T16:09:20.556Z,19.10
2022-10-12T16:11:49.024Z,19.10
2022-10-12T16:14:16.420Z,19.00
2022-10-12T16:16:43.581Z,19.00
2022-10-12T16:19:10.809Z,19.00
2022-10-12T16:21:38.344Z,18.90
2022-10-12T16:24:08.516Z,18.80
2022-10-12T16:26:35.318Z,18.80
2022-10-12T16:29:11.466Z,18.80
2022-10-12T16:31:44.005Z,17.90
2022-10-12T16:34:11.210Z,18.70
2022-10-12T16:36:38.985Z,18.60
2022-10-12T16:39:06.274Z,18.50
2022-10-12T16:41:34.089Z,18.60
2022-10-12T16:44:01.774Z,18.50
2022-10-12T16:46:28.550Z,18.40
2022-10-12T16:48:55.478Z,18.40
2022-10-12T16:51:22.246Z,18.40
2022-10-12T16:53:49.038Z,18.40
2022-10-12T16:56:16.225Z,18.40
2022-10-12T16:58:42.997Z,18.40
2022-10-12T17:01:14.145Z,18.30
2022-10-12T17:03:41.683Z,18.30
2022-10-12T17:06:09.160Z,18.30
2022-10-12T17:08:38.993Z,18.30
2022-10-12T17:11:13.373Z,18.20
2022-10-12T17:13:45.210Z,18.20
2022-10-12T17:16:34.051Z,18.10
2022-10-12T17:19:00.808Z,18.10
2022-10-12T17:21:28.094Z,18.10
2022-10-12T17:23:59.562Z,18.10
2022-10-12T17:26:27.215Z,18.10
2022-10-12T17:28:54.256Z,18.00
2022-10-12T17:31:21.205Z,18.00
2022-10-12T17:33:49.176Z,18.00
2022-10-12T17:36:16.179Z,18.00
2022-10-12T17:38:43.397Z,17.90
2022-10-12T17:41:10.291Z,17.90
2022-10-12T17:43:37.125Z,17.90
2022-10-12T17:46:07.275Z,17.80
2022-10-12T17:48:34.690Z,17.80
2022-10-12T17:51:03.306Z,17.80
2022-10-12T17:53:30.110Z,17.80
2022-10-12T17:56:02.002Z,17.80
2022-10-12T17:58:29.441Z,17.70
2022-10-12T18:00:56.535Z,17.80
2022-10-12T18:03:26.318Z,17.80
2022-10-12T18:05:53.155Z,17.70
2022-10-12T18:08:20.282Z,17.70
2022-10-12T18:10:47.135Z,17.60
2022-10-12T18:13:14.049Z,17.60
2022-10-12T18:15:44.067Z,17.60
2022-10-12T18:18:15.137Z,17.40
2022-10-12T18:20:42.388Z,17.40
2022-10-12T18:23:09.429Z,17.40
2022-10-12T18:25:41.822Z,17.30
2022-10-12T18:28:10.854Z,17.40
2022-10-12T18:30:45.166Z,17.30
2022-10-12T18:33:12.267Z,17.20
2022-10-12T18:35:39.505Z,17.20
2022-10-12T18:38:06.408Z,17.20
2022-10-12T18:40:36.612Z,17.10
2022-10-12T18:43:06.641Z,17.10
2022-10-12T18:45:33.532Z,17.10
2022-10-12T18:48:00.731Z,17.10
2022-10-12T18:50:28.095Z,17.10
2022-10-12T18:52:55.271Z,17.00
2022-10-12T18:55:22.093Z,17.00
2022-10-12T18:57:48.858Z,17.00
2022-10-12T19:00:16.124Z,17.00
2022-10-12T19:02:42.966Z,17.00
2022-10-12T19:05:09.854Z,17.00
2022-10-12T19:07:36.850Z,16.90
2022-10-12T19:10:08.426Z,17.00
2022-10-12T19:12:35.892Z,17.40
2022-10-12T19:15:03.719Z,17.30
2022-10-12T19:17:31.465Z,17.30
2022-10-12T19:19:59.522Z,17.20
2022-10-12T19:22:26.923Z,17.10
2022-10-12T19:24:54.173Z,17.10
2022-10-12T19:27:21.012Z,17.00
2022-10-12T19:29:47.801Z,16.90
2022-10-12T19:32:14.540Z,16.80
2022-10-12T19:34:41.275Z,16.80
2022-10-12T19:37:08.477Z,16.80
2022-10-12T19:39:36.360Z,16.70
2022-10-12T19:42:03.208Z,16.70
2022-10-12T19:44:30.031Z,16.70
2022-10-12T19:46:58.296Z,16.60
2022-10-12T19:49:25.184Z,16.60
2022-10-12T19:51:52.022Z,16.50
2022-10-12T19:54:19.789Z,16.50
2022-10-12T19:56:46.720Z,16.50
2022-10-12T19:59:13.880Z,16.50
2022-10-12T20:01:40.673Z,16.50
2022-10-12T20:04:10.064Z,16.40
2022-10-12T20:06:38.272Z,16.40
2022-10-12T20:09:07.531Z,16.40
2022-10-12T20:11:35.740Z,16.40
2022-10-12T20:14:03.385Z,16.40
2022-10-12T20:16:34.820Z,16.30
2022-10-12T20:19:02.895Z,16.30
2022-10-12T20:21:29.695Z,16.30
2022-10-12T20:23:56.854Z,16.20
2022-10-12T20:26:25.792Z,16.10
2022-10-12T20:28:54.221Z,16.10
2022-10-12T20:31:23.837Z,16.20
2022-10-12T20:33:54.545Z,16.20
2022-10-12T20:36:26.411Z,16.20
2022-10-12T20:38:53.817Z,16.20
2022-10-12T20:41:21.837Z,16.20
2022-10-12T20:43:48.894Z,16.20
2022-10-12T20:46:24.088Z,16.20
2022-10-12T20:48:55.897Z,16.10
2022-10-12T20:51:31.387Z,16.10
2022-10-12T20:54:00.797Z,16.00
2022-10-12T20:56:30.911Z,16.00
2022-10-12T20:59:01.489Z,16.00
2022-10-12T21:01:28.744Z,15.80
2022-10-12T21:03:56.369Z,15.90
2022-10-12T21:06:23.858Z,16.00
2022-10-12T21:08:53.519Z,16.00
2022-10-12T21:11:21.164Z,16.00
2022-10-12T21:13:48.005Z,16.00
2022-10-12T21:16:15.449Z,16.00
2022-10-12T21:18:43.164Z,16.00
2022-10-12T21:21:12.978Z,16.00
2022-10-12T21:23:41.137Z,16.00
2022-10-12T21:26:16.977Z,16.00
2022-10-12T21:28:44.468Z,16.00
2022-10-12T21:31:12.804Z,15.90
2022-10-12T21:33:40.643Z,16.00
2022-10-12T21:36:13.443Z,15.90
2022-10-12T21:38:40.969Z,15.90
2022-10-12T21:41:09.013Z,15.90
2022-10-12T21:43:37.259Z,15.80
2022-10-12T21:46:06.940Z,15.80
2022-10-12T21:48:34.671Z,15.80
2022-10-12T21:51:02.282Z,15.70
2022-10-12T21:53:29.766Z,15.70
2022-10-12T21:55:56.916Z,15.70
2022-10-12T21:58:24.066Z,15.50
2022-10-12T22:00:50.885Z,15.50
2022-10-12T22:03:17.637Z,15.40
2022-10-12T22:05:44.893Z,15.40
2022-10-12T22:08:11.757Z,15.40
2022-10-12T22:10:39.249Z,15.50
2022-10-12T22:13:06.856Z,15.50
2022-10-12T22:15:33.946Z,15.50
2022-10-12T22:18:01.137Z,15.50
2022-10-12T22:20:28.255Z,15.50
2022-10-12T22:22:54.992Z,15.50
2022-10-12T22:25:21.754Z,15.50
2022-10-12T22:27:48.550Z,15.40
2022-10-12T22:30:15.459Z,15.40
2022-10-12T22:32:42.720Z,15.30
2022-10-12T22:35:09.649Z,15.30
2022-10-12T22:37:36.865Z,15.30
2022-10-12T22:40:05.376Z,15.30
2022-10-12T22:42:32.103Z,15.30
2022-10-12T22:44:59.253Z,15.30
2022-10-12T22:47:26.357Z,15.20
2022-10-12T22:49:53.493Z,15.20
2022-10-12T22:52:20.625Z,15.20
2022-10-12T22:54:47.784Z,15.10
2022-10-12T22:57:14.518Z,15.10
2022-10-12T22:59:41.845Z,15.00
2022-10-12T23:02:08.597Z,15.00
2022-10-12T23:04:35.462Z,14.90
2022-10-12T23:07:02.188Z,14.90
2022-10-12T23:09:29.325Z,14.90
2022-10-12T23:11:56.100Z,14.90
2022-10-12T23:14:22.875Z,14.90
2022-10-12T23:16:50.148Z,14.80
2022-10-12T23:19:17.265Z,14.80
2022-10-12T23:21:44.070Z,14.70
2022-10-12T23:24:10.911Z,14.70
2022-10-12T23:26:38.014Z,14.70
2022-10-12T23:29:04.754Z,14.60
2022-10-12T23:31:32.374Z,14.60
2022-10-12T23:34:01.584Z,14.70
2022-10-12T23:36:29.086Z,14.60
2022-10-12T23:38:56.595Z,14.60
2022-10-12T23:41:23.830Z,14.50
2022-10-12T23:43:50.676Z,14.50
2022-10-12T23:46:17.409Z,14.50
2022-10-12T23:48:44.519Z,14.60
2022-10-12T23:51:11.599Z,14.60
2022-10-12T23:53:39.035Z,14.60
2022-10-12T23:56:06.931Z,14.60
2022-10-12T23:58:34.829Z,14.50
